createdAt,value
2022-10-19T06:19:43.156Z,11.35
2022-10-19T06:22:20.817Z,11.30
2022-10-19T06:24:57.815Z,11.26
2022-10-19T06:27:36.291Z,11.21
2022-10-19T06:30:15.207Z,11.17
2022-10-19T06:32:52.538Z,11.15
2022-10-19T06:35:31.900Z,11.14
2022-10-19T06:38:08.900Z,11.13
2022-10-19T06:40:45.587Z,11.08
2022-10-19T06:43:22.564Z,11.04
2022-10-19T06:45:59.529Z,11.03
2022-10-19T06:48:36.900Z,11.01
2022-10-19T06:51:16.209Z,11.00
2022-10-19T06:53:56.615Z,10.99
2022-10-19T06:56:33.690Z,11.02
2022-10-19T06:59:13.502Z,11.02
2022-10-19T07:01:51.535Z,11.02
2022-10-19T07:04:28.642Z,11.04
2022-10-19T07:07:08.009Z,11.04
2022-10-19T07:09:45.245Z,11.01
2022-10-19T07:12:22.067Z,11.03
2022-10-19T07:14:59.355Z,11.02
2022-10-19T07:17:36.329Z,11.04
2022-10-19T07:20:14.920Z,11.06
2022-10-19T07:22:54.530Z,11.06
2022-10-19T07:25:31.669Z,11.01
2022-10-19T07:28:08.898Z,10.98
2022-10-19T07:30:46.579Z,10.97
2022-10-19T07:33:23.206Z,11.00
2022-10-19T07:36:04.329Z,11.03
2022-10-19T07:38:44.306Z,11.03
2022-10-19T07:41:26.207Z,11.00
2022-10-19T07:44:04.544Z,10.97
2022-10-19T07:46:42.853Z,11.02
2022-10-19T07:49:21.080Z,11.01
2022-10-19T07:51:59.284Z,11.03
2022-10-19T07:54:38.667Z,11.10
2022-10-19T07:57:15.815Z,11.12
2022-10-19T07:59:52.574Z,11.16
2022-10-19T08:02:39.449Z,11.25
2022-10-19T08:05:26.362Z,11.26
2022-10-19T08:08:03.369Z,11.27
2022-10-19T08:10:42.711Z,11.27
2022-10-19T08:13:19.670Z,11.26
2022-10-19T08:15:56.440Z,11.30
2022-10-19T08:18:34.030Z,11.32
2022-10-19T08:21:10.855Z,11.29
2022-10-19T08:23:47.943Z,11.28
2022-10-19T08:26:27.464Z,11.30
2022-10-19T08:29:04.906Z,11.25
2022-10-19T08:31:43.045Z,11.23
2022-10-19T08:34:20.763Z,11.21
2022-10-19T08:36:57.593Z,11.19
2022-10-19T08:39:35.063Z,11.27
2022-10-19T08:42:20.352Z,11.35
2022-10-19T08:48:33.275Z,11.62
2022-10-19T08:51:10.741Z,11.73
2022-10-19T08:53:55.791Z,11.87
2022-10-19T08:56:50.579Z,11.92
2022-10-19T08:59:43.715Z,11.97
2022-10-19T09:02:33.443Z,11.97
2022-10-19T09:05:19.797Z,11.97
2022-10-19T09:07:57.981Z,11.88
2022-10-19T09:10:38.587Z,11.91
2022-10-19T09:13:29.205Z,11.92
2022-10-19T09:16:19.078Z,12.12
2022-10-19T09:18:56.388Z,12.41
2022-10-19T09:21:47.286Z,12.90
2022-10-19T09:24:35.240Z,13.31
2022-10-19T09:27:21.876Z,13.77
2022-10-19T09:30:02.868Z,14.16
2022-10-19T09:32:43.367Z,14.44
2022-10-19T09:35:32.058Z,14.84
2022-10-19T09:38:10.388Z,15.22
2022-10-19T09:40:48.294Z,15.52
2022-10-19T09:43:25.778Z,15.43
2022-10-19T09:46:18.749Z,14.98
2022-10-19T09:49:02.369Z,14.99
2022-10-19T09:51:54.136Z,15.43
2022-10-19T09:54:38.027Z,15.84
2022-10-19T09:57:24.918Z,15.73
2022-10-19T10:00:01.999Z,15.56
2022-10-19T10:02:41.456Z,15.20
2022-10-19T10:05:21.997Z,15.14
2022-10-19T10:07:59.827Z,15.00
2022-10-19T10:10:46.127Z,14.65
2022-10-19T10:13:28.387Z,14.29
2022-10-19T10:16:08.086Z,13.94
2022-10-19T10:18:58.040Z,13.79
2022-10-19T10:21:49.157Z,13.61
2022-10-19T10:24:28.525Z,13.68
2022-10-19T10:27:08.866Z,13.77
2022-10-19T10:29:59.416Z,14.07
2022-10-19T10:32:44.407Z,14.27
2022-10-19T10:35:28.716Z,14.50
2022-10-19T10:38:21.528Z,14.64
2022-10-19T10:41:03.189Z,14.42
2022-10-19T10:43:52.996Z,14.24
2022-10-19T10:46:35.816Z,14.10
2022-10-19T10:49:23.765Z,13.75
2022-10-19T10:52:03.755Z,13.58
2022-10-19T10:54:43.228Z,13.47
2022-10-19T10:57:24.445Z,13.49
2022-10-19T11:00:08.436Z,13.76
2022-10-19T11:02:52.919Z,14.01
2022-10-19T11:05:34.232Z,14.27
2022-10-19T11:08:22.101Z,14.39
2022-10-19T11:11:10.032Z,14.32
2022-10-19T11:13:53.948Z,14.21
2022-10-19T11:16:37.156Z,14.12
2022-10-19T11:19:18.761Z,14.12
2022-10-19T11:22:06.296Z,13.98
2022-10-19T11:24:59.494Z,13.72
2022-10-19T11:27:53.769Z,13.29
2022-10-19T11:30:34.082Z,13.22
2022-10-19T11:33:20.813Z,13.36
2022-10-19T11:36:01.631Z,13.31
2022-10-19T11:38:55.714Z,13.68
2022-10-19T11:41:41.765Z,14.09
2022-10-19T11:44:42.375Z,14.22
2022-10-19T11:47:44.215Z,14.72
2022-10-19T11:50:37.794Z,14.58
2022-10-19T11:53:27.860Z,14.43
2022-10-19T11:56:12.839Z,14.30
2022-10-19T11:59:05.909Z,14.14
2022-10-19T12:01:59.924Z,13.93
2022-10-19T12:04:55.784Z,13.66
2022-10-19T12:08:01.899Z,13.40
2022-10-19T12:10:48.888Z,13.36
2022-10-19T12:13:34.899Z,13.30
2022-10-19T12:16:14.550Z,13.32
2022-10-19T12:18:58.769Z,13.34
2022-10-19T12:21:41.080Z,13.32
2022-10-19T12:24:21.800Z,13.25
2022-10-19T12:27:00.424Z,13.17
2022-10-19T12:29:42.970Z,13.26
2022-10-19T12:32:27.019Z,13.30
2022-10-19T12:35:20.911Z,13.42
2022-10-19T12:38:07.521Z,13.57
2022-10-19T12:40:53.898Z,13.79
2022-10-19T12:43:42.096Z,14.04
2022-10-19T12:46:32.610Z,14.31
2022-10-19T12:49:46.435Z,14.50
2022-10-19T12:52:44.793Z,14.56
2022-10-19T12:55:35.219Z,14.55
2022-10-19T12:58:26.202Z,14.69
2022-10-19T13:01:05.728Z,14.74
2022-10-19T13:03:47.339Z,14.85
2022-10-19T13:06:37.232Z,15.01
2022-10-19T13:09:35.131Z,15.10
2022-10-19T13:12:32.342Z,15.13
2022-10-19T13:15:30.071Z,15.25
2022-10-19T13:18:08.530Z,15.22
2022-10-19T13:21:02.454Z,15.34
2022-10-19T13:23:45.640Z,15.22
2022-10-19T13:26:36.969Z,15.18
2022-10-19T13:29:29.814Z,14.96
2022-10-19T13:32:47.380Z,14.77
2022-10-19T13:35:35.753Z,14.72
2022-10-19T13:38:29.004Z,14.55
2022-10-19T13:41:26.627Z,14.42
2022-10-19T13:44:22.070Z,14.26
2022-10-19T13:47:40.854Z,14.21
2022-10-19T13:50:35.631Z,14.23
2022-10-19T13:53:31.889Z,14.09
2022-10-19T13:56:40.247Z,13.75
2022-10-19T14:00:07.553Z,13.58
2022-10-19T14:03:20.982Z,13.43
2022-10-19T14:06:21.324Z,13.25
2022-10-19T14:09:49.701Z,12.99
2022-10-19T14:12:29.450Z,12.87
2022-10-19T14:15:25.202Z,12.76
2022-10-19T14:18:05.830Z,12.59
2022-10-19T14:20:43.503Z,12.50
2022-10-19T14:23:23.521Z,12.46
2022-10-19T14:26:02.752Z,12.49
2022-10-19T14:28:40.467Z,12.56
2022-10-19T14:31:25.608Z,12.56
2022-10-19T14:34:06.080Z,12.63
2022-10-19T14:36:48.297Z,12.61
2022-10-19T14:39:35.389Z,12.66
2022-10-19T14:42:14.891Z,12.77
2022-10-19T14:44:51.960Z,12.84
2022-10-19T14:47:31.241Z,12.81
2022-10-19T14:50:10.155Z,12.77
2022-10-19T14:52:47.114Z,12.71
2022-10-19T14:55:25.254Z,12.64
2022-10-19T14:58:02.354Z,12.60
2022-10-19T15:00:40.223Z,12.56
2022-10-19T15:03:27.424Z,12.52
2022-10-19T15:06:08.885Z,12.47
2022-10-19T15:08:49.760Z,12.36
2022-10-19T15:11:32.116Z,12.21
2022-10-19T15:14:16.369Z,12.19
2022-10-19T15:16:57.600Z,12.11
2022-10-19T15:19:45.129Z,12.03
2022-10-19T15:22:26.888Z,11.94
2022-10-19T15:25:33.197Z,11.92
2022-10-19T15:28:39.117Z,11.82
2022-10-19T15:31:23.927Z,11.73
2022-10-19T15:34:05.599Z,11.64
2022-10-19T15:36:59.214Z,11.56
2022-10-19T15:39:42.109Z,11.34
2022-10-19T15:42:41.249Z,11.33
2022-10-19T15:45:38.447Z,11.22
2022-10-19T15:48:31.858Z,11.13
2022-10-19T15:51:28.747Z,11.03
2022-10-19T15:54:10.067Z,11.01
2022-10-19T15:56:50.677Z,10.86
2022-10-19T15:59:27.552Z,10.77
2022-10-19T16:02:05.739Z,10.70
2022-10-19T16:04:42.358Z,10.65
2022-10-19T16:07:24.127Z,10.54
2022-10-19T16:10:03.513Z,10.48
2022-10-19T16:12:41.165Z,10.39
2022-10-19T16:15:23.030Z,10.32
2022-10-19T16:18:03.345Z,10.30
2022-10-19T16:20:41.081Z,10.29
2022-10-19T16:23:21.886Z,10.25
2022-10-19T16:26:01.297Z,10.29
2022-10-19T16:28:39.609Z,10.28
2022-10-19T16:31:17.346Z,10.28
2022-10-19T16:33:55.667Z,10.27
2022-10-19T16:36:33.103Z,10.28
2022-10-19T16:39:10.714Z,10.27
2022-10-19T16:41:51.793Z,10.28
2022-10-19T16:44:29.408Z,10.18
2022-10-19T16:47:07.125Z,10.13
2022-10-19T16:49:46.662Z,10.05
2022-10-19T16:52:24.111Z,10.01
2022-10-19T16:55:01.783Z,9.96
2022-10-19T16:57:42.063Z,9.91
2022-10-19T17:00:20.080Z,9.81
2022-10-19T17:02:57.297Z,9.78
2022-10-19T17:05:35.111Z,9.72
2022-10-19T17:08:14.115Z,9.70
2022-10-19T17:10:52.905Z,9.62
2022-10-19T17:13:32.986Z,9.54
2022-10-19T17:16:14.094Z,9.49
2022-10-19T17:18:53.120Z,9.49
2022-10-19T17:21:37.798Z,9.47
2022-10-19T17:24:22.222Z,9.45
2022-10-19T17:27:04.628Z,9.40
2022-10-19T17:29:46.135Z,9.42
2022-10-19T17:32:25.424Z,9.41
2022-10-19T17:35:04.434Z,9.39
2022-10-19T17:37:44.384Z,9.41
2022-10-19T17:40:22.177Z,9.43
2022-10-19T17:43:00.244Z,9.42
2022-10-19T17:45:40.903Z,9.44
2022-10-19T17:48:18.613Z,9.46
2022-10-19T17:51:02.143Z,9.43
2022-10-19T17:53:40.483Z,9.44
2022-10-19T17:56:20.591Z,9.46
2022-10-19T17:59:01.033Z,9.50
2022-10-19T18:01:41.904Z,9.50
2022-10-19T18:04:19.818Z,9.50
2022-10-19T18:06:58.758Z,9.48
2022-10-19T18:09:36.997Z,9.45
2022-10-19T18:12:16.296Z,9.45
2022-10-19T18:14:56.924Z,9.46
2022-10-19T18:17:37.275Z,9.44
2022-10-19T18:20:15.875Z,9.38
2022-10-19T18:22:54.392Z,9.26
2022-10-19T18:25:53.065Z,9.24
2022-10-19T18:28:34.112Z,9.22
2022-10-19T18:31:14.593Z,9.20
2022-10-19T18:34:01.326Z,9.22
2022-10-19T18:36:39.544Z,9.21
2022-10-19T18:39:19.426Z,9.19
2022-10-19T18:41:59.397Z,9.19
2022-10-19T18:44:37.710Z,9.20
2022-10-19T18:47:16.302Z,9.21
2022-10-19T18:49:58.605Z,9.22
2022-10-19T18:52:39.714Z,9.24
2022-10-19T18:55:18.294Z,9.23
2022-10-19T18:57:56.204Z,9.18
2022-10-19T19:00:33.852Z,9.21
2022-10-19T19:03:11.588Z,9.22
2022-10-19T19:05:51.737Z,9.25
2022-10-19T19:08:29.862Z,9.25
2022-10-19T19:11:14.861Z,9.28
2022-10-19T19:13:54.550Z,9.28
2022-10-19T19:16:33.870Z,9.26
2022-10-19T19:19:17.431Z,9.28
2022-10-19T19:21:58.894Z,9.28
2022-10-19T19:24:37.058Z,9.25
2022-10-19T19:27:14.947Z,9.22
2022-10-19T19:29:54.315Z,9.14
2022-10-19T19:32:32.724Z,9.14
2022-10-19T19:35:11.377Z,9.08
2022-10-19T19:37:51.821Z,9.01
2022-10-19T19:40:32.246Z,8.97
2022-10-19T19:43:09.910Z,8.89
2022-10-19T19:45:51.089Z,8.82
2022-10-19T19:48:28.719Z,8.84
2022-10-19T19:51:06.859Z,8.76
2022-10-19T19:53:47.841Z,8.71
2022-10-19T19:56:26.052Z,8.67
2022-10-19T19:59:07.064Z,8.68
2022-10-19T20:01:46.809Z,8.68
2022-10-19T20:04:24.519Z,8.66
